Etusivu
METAR-TAF:

METAR-TAF

Lentoasemat :

Hallock Municipal Airport

Hallock, Minnesota, Yhdysvallat

Leveyspiiri: 48-45-10N, Pituuspiiri: 096-56-35W, korkeus merenpinnasta: 250 m

Tämänhetkinen sää

Tämä raportti tehtiin 11 minuuttia sitten, kello 23.35 UTC
Tuuli 10 kn etelästä/kaakosta
Lämpötila -5°C
Kosteus 93%
Ilmanpaine 1018 hPa
Näkyvyys: 16.1 km
selkeää

METAR: KHCO 142335Z AUTO 15010KT 10SM CLR M05/M06 A3006 RMK AO2

Aika: 17:46 (23:46 UTC)


TAF: puuttuu

Säähavainnot ja -ennusteet yli 4000 lentoasemalta (METAR- ja TAF-raportit).

Käytössä olevat sääasemat on merkitty karttaan keltaisilla ja punaisilla pisteillä.

Aseta hiiri pisteen päälle nähdäksesi sääaseman nimen.

Klikkaa sitten nähdäksesi säähavainnot ja -ennusteet.

Kartan vaihtaminen: klikkaa mustalla rastilla varustettuja vihreitä pisteitä, niin voit zoomata sisään; viivalla varustettua vihreää pistettä, niin voit zoomata ulos tai vihreitä nuolia, niin pääset viereisille kartoille.


METAR-TAF: